首页
METAR-TAF:

METAR-TAF

机场 :

特里布万国际机场

加德滿都, 尼泊尔

纬度: 27-42N, 经度: 085-22E, 海拔: 1337米

当前天气观测

该预报发布于1小时和19分钟前的20:20 UTC
风速4节,风向
温度 12°C
湿度 88%
气压 1019 hPa
能見度: 6000
少量云层高于1500英尺

METAR: VNKT 222020Z 10004KT 6000 FEW015 12/10 Q1019 NOSIG

时间: 03:24 (21:39 UTC)

预报

该预报发布于4小时和39分钟前的17:00 UTC
预报有效从22日的 18点(UTC)到 23日的 18点(UTC)
风速3节,风向东转东南
能見度: 7000
少量云层高于1500英尺
成为
从 23日的 00点(UTC)到 23日的 02点(UTC)
风速2节,风向多变
能見度: 3000
少量云层高于1000英尺
轻雾
成为
从 23日的 03点(UTC)到 23日的 05点(UTC)
风速4节,风向南转西南
能見度: 5000
少量云层高于1500英尺
轻雾
成为
从 23日的 07点(UTC)到 23日的 08点(UTC)
风速10节,风向西转西北
能見度: 8000
少量云层高于2000英尺
散云层高于3000英尺
成为
从 23日的 13点(UTC)到 23日的 14点(UTC)
风速4节,风向南转西南
能見度: 6000
少量云层高于1500英尺

TAF: VNKT 221700Z 2218/2318 12003KT 7000 FEW015 BECMG 2300/2302 VRB02KT 3000 BR FEW010 BECMG 2303/2305 20004KT 5000 BR FEW015 BECMG 2307/2308 29010KT 8000 FEW020 SCT030 BECMG 2313/2314 21004KT 6000 FEW015

超过4000个机场的气象观测和天气预报(METAR&TAF报告)。

可查询的气象台以黄色和红色小点在地图上表示。

将鼠标移到小点上方,可查看气象台名称。

然后点击查看天气观测和预报。

如需切换地图:点击带黑十字的绿色按钮放大地图;点击带横线的绿色按钮缩小地图;或者点击绿色箭头查看邻近地区的地图。


METAR-TAF: